Aviation Digital Data Service (ADDS)

Output produced by METARs form (1038 UTC 18 June 2019)
found at http://www.aviationweather.gov/metar/data/
 
Forecast for: VERC (RANCHI , IN)
Text: TAF VERC 180800Z 1809/1818 36005KT 5500 HZ -RA FEW020 FEW030CB SCT100
Forecast period: 0900 to 1500 UTC 18 June 2019
Forecast type: FROM: standard forecast or significant change
Winds: from the N (360 degrees) at 6 MPH (5 knots; 2.6 m/s)
Visibility: 3 miles (6 km)
Ceiling: at least 12,000 feet AGL
Clouds: few clouds at 2000 feet AGL
few clouds at 3000 feet AGL
scattered clouds at 10000 feet AGL
Weather: HZ -RA  (haze, light rain)
Text: BECMG 1815/1817 00000KT 4000 HZ FEW020 SCT100
Forecast period: 1500 to 1800 UTC 18 June 2019
Forecast type: BECOMING: Conditions expected to become as follows by 1700 UTC 18 June 2019
Winds: calm
Visibility: 2.49 miles (4.01 km)
Ceiling: at least 12,000 feet AGL
Clouds: few clouds at 2000 feet AGL
scattered clouds at 10000 feet AGL
Weather: HZ  (haze)